Bad Axe, MI

8:14 PM EST on February 17, 2018 (GMT -0500)
Huron County Memorial

Weather History for KBAX - March, 2013

Change the Weather History Date:

Friday, March 15, 2013

  Actual Average (KP58) Record (KP58)
Temperature  
Mean Temperature 34 °F -  
Max Temperature 39 °F 35 °F 71 °F (2012)
Min Temperature 29 °F 23 °F 12 °F (2005)
Degree Days  
Heating Degree Days 31    
Moisture  
Dew Point 27 °F    
Average Humidity 80    
Maximum Humidity 89    
Minimum Humidity 64    
Precipitation  
Precipitation 0.00 in - - ()
Sea Level Pressure  
Sea Level Pressure 29.88 in    
Wind  
Wind Speed 11 mph (WNW)    
Max Wind Speed 17 mph    
Max Gust Speed 26 mph    
Visibility 10 miles    
Events Snow    
Averages and records for this station are not official NWS values.
T = Trace of Precipitation, MM = Missing Value Source: NWS Daily Summary

Daily Weather History Graph

Daily Weather History Graph

Search for Another Location

Airport or City:

Trip Planner

Search our weather history database for the weather conditions in past years. The results will help you decide how hot, cold, wet, or windy it might be!

Date:

Astronomy

Mar. 15, 2013 Rise Set
Actual Time 7:43 AM EDT 7:38 PM EDT
Civil Twilight 7:15 AM EDT 8:07 PM EDT
Nautical Twilight 6:41 AM EDT 8:40 PM EDT
Astronomical Twilight 6:07 AM EDT 9:14 PM EDT
Moon 9:24 AM EDT (3/15) No Moon Set
Length of Visible Light 12h 52m
Length of Day
11h 54m
Waxing Crescent, 15% of the Moon is Illuminated
Mar 15
Waxing Crescent
Mar 19
First Quarter
Mar 27
Full
Apr 3
Last Quarter
Apr 10
New

Hourly Weather History & Observations

Time (EDT) Temp. Windchill Dew Point Humidity Pressure Visibility Wind Dir Wind Speed Gust Speed Precip Events Conditions
12:13 AM 32.0 °F 23.6 °F 23.4 °F 70% 30.00 in 10.0 mi WSW 10.4 mph - N/A   Clear
12:34 AM 32.0 °F 23.6 °F 23.9 °F 72% 30.00 in 10.0 mi WSW 10.4 mph - N/A   Scattered Clouds
12:54 AM 31.6 °F 22.1 °F 23.9 °F 73% 29.99 in 10.0 mi West 12.7 mph 16.1 mph N/A   Mostly Cloudy
1:13 AM 31.1 °F 22.4 °F 23.0 °F 72% 29.99 in 10.0 mi West 10.4 mph 17.3 mph N/A   Scattered Clouds
1:34 AM 31.1 °F 21.9 °F 23.0 °F 72% 29.99 in 10.0 mi West 11.5 mph - N/A   Scattered Clouds
1:54 AM 31.1 °F 22.4 °F 22.5 °F 70% 29.98 in 10.0 mi West 10.4 mph 17.3 mph N/A   Overcast
2:13 AM 31.5 °F 21.8 °F 21.2 °F 66% 29.97 in 10.0 mi West 12.7 mph 17.3 mph N/A   Overcast
2:34 AM 31.5 °F 21.8 °F 21.4 °F 66% 29.96 in 10.0 mi WSW 12.7 mph - N/A   Overcast
2:54 AM 31.1 °F 21.4 °F 22.3 °F 70% 29.95 in 10.0 mi WSW 12.7 mph 17.3 mph N/A   Overcast
3:13 AM 31.1 °F 21.4 °F 23.0 °F 72% 29.93 in 10.0 mi WSW 12.7 mph - N/A   Overcast
3:34 AM 31.1 °F 20.5 °F 24.1 °F 75% 29.92 in 10.0 mi WSW 15.0 mph 21.9 mph N/A Snow Light Snow
3:54 AM 30.9 °F 21.7 °F 25.3 °F 80% 29.91 in 3.0 mi WSW 11.5 mph 20.7 mph N/A Snow Light Snow
4:13 AM 30.9 °F 21.7 °F 26.4 °F 83% 29.90 in 4.0 mi West 11.5 mph 20.7 mph N/A Snow Light Snow
4:34 AM 31.3 °F 20.3 °F 26.6 °F 83% 29.89 in 10.0 mi WSW 16.1 mph 19.6 mph N/A   Overcast
4:54 AM 31.6 °F 20.7 °F 27.0 °F 83% 29.88 in 10.0 mi WSW 16.1 mph 19.6 mph N/A   Overcast
5:13 AM 31.8 °F 21.0 °F 27.3 °F 83% 29.87 in 10.0 mi WSW 16.1 mph 21.9 mph N/A   Overcast
5:34 AM 32.0 °F 21.6 °F 27.7 °F 84% 29.87 in 10.0 mi West 15.0 mph 23.0 mph N/A   Overcast
5:53 AM 32.0 °F 22.1 °F 28.4 °F 87% 29.86 in 10.0 mi West 13.8 mph 20.7 mph N/A   Overcast
6:13 AM 32.0 °F 20.8 °F 28.8 °F 88% 29.86 in 10.0 mi West 17.3 mph 24.2 mph N/A   Overcast
6:34 AM 32.0 °F 21.6 °F 29.1 °F 89% 29.85 in 10.0 mi West 15.0 mph 24.2 mph N/A   Overcast
6:53 AM 32.2 °F 22.3 °F 28.9 °F 88% 29.85 in 10.0 mi West 13.8 mph 25.3 mph N/A   Overcast
7:14 AM 32.2 °F 21.8 °F 29.1 °F 88% 29.84 in 10.0 mi West 15.0 mph 26.5 mph N/A   Overcast
7:34 AM 32.2 °F 21.1 °F 29.1 °F 88% 29.84 in 10.0 mi West 17.3 mph 21.9 mph N/A   Overcast
7:53 AM 32.4 °F 21.7 °F 29.3 °F 88% 29.85 in 10.0 mi West 16.1 mph 21.9 mph N/A   Overcast
8:14 AM 32.9 °F 24.1 °F 29.5 °F 87% 29.85 in 10.0 mi West 11.5 mph - N/A   Overcast
8:34 AM 32.9 °F 25.3 °F 29.8 °F 88% 29.85 in 10.0 mi West 9.2 mph 18.4 mph N/A   Overcast
8:53 AM 32.9 °F 24.1 °F 29.8 °F 88% 29.85 in 10.0 mi West 11.5 mph 17.3 mph N/A   Overcast
9:14 AM 33.1 °F 23.9 °F 30.2 °F 89% 29.85 in 10.0 mi West 12.7 mph 18.4 mph N/A   Overcast
9:34 AM 33.1 °F 24.4 °F 30.2 °F 89% 29.85 in 10.0 mi West 11.5 mph 17.3 mph N/A   Overcast
9:53 AM 33.3 °F 24.1 °F 30.2 °F 89% 29.85 in 7.0 mi West 12.7 mph 17.3 mph N/A   Overcast
10:14 AM 33.4 °F 26.6 °F 30.6 °F 89% 29.85 in 7.0 mi West 8.1 mph - N/A   Overcast
10:33 AM 33.8 °F 25.3 °F 30.7 °F 89% 29.85 in 7.0 mi West 11.5 mph - N/A   Overcast
10:54 AM 33.8 °F 25.8 °F 30.7 °F 89% 29.85 in 7.0 mi West 10.4 mph 18.4 mph N/A   Overcast
11:14 AM 33.8 °F 25.3 °F 30.7 °F 89% 29.85 in 7.0 mi West 11.5 mph - N/A   Overcast
11:33 AM 33.8 °F 26.4 °F 30.9 °F 89% 29.84 in 7.0 mi West 9.2 mph - N/A   Overcast
11:54 AM 34.3 °F 27.0 °F 31.1 °F 88% 29.85 in 7.0 mi West 9.2 mph - N/A   Overcast
12:14 PM 34.7 °F 26.4 °F 31.3 °F 87% 29.85 in 7.0 mi West 11.5 mph - N/A   Overcast
12:33 PM 35.6 °F 28.0 °F 32.0 °F 87% 29.84 in 10.0 mi West 10.4 mph - N/A   Overcast
12:54 PM 36.5 °F 28.7 °F 32.0 °F 84% 29.85 in 10.0 mi West 11.5 mph - N/A   Overcast
1:13 PM 36.7 °F 28.4 °F 32.0 °F 83% 29.85 in 10.0 mi West 12.7 mph - N/A   Overcast
1:34 PM 37.2 °F 30.0 °F 32.0 °F 81% 29.85 in 10.0 mi West 10.4 mph - N/A   Overcast
1:54 PM 36.9 °F 29.6 °F 31.1 °F 80% 29.84 in 10.0 mi West 10.4 mph - N/A   Overcast
2:13 PM 37.8 °F 29.8 °F 31.3 °F 77% 29.84 in 10.0 mi West 12.7 mph 17.3 mph N/A   Overcast
2:34 PM 37.8 °F 31.8 °F 30.4 °F 75% 29.84 in 10.0 mi WNW 8.1 mph - N/A   Overcast
2:54 PM 39.2 °F 31.6 °F 30.4 °F 71% 29.83 in 10.0 mi WNW 12.7 mph 18.4 mph N/A   Overcast
3:14 PM 33.1 °F 27.7 °F 27.9 °F 81% 29.84 in 10.0 mi NE 5.8 mph - N/A   Overcast
3:34 PM 33.3 °F 27.1 °F 28.2 °F 82% 29.84 in 10.0 mi NE 6.9 mph - N/A   Overcast
3:54 PM 33.8 °F 27.7 °F 27.5 °F 78% 29.85 in 10.0 mi NNE 6.9 mph - N/A   Overcast
4:14 PM 35.1 °F 29.3 °F 27.9 °F 75% 29.85 in 10.0 mi ENE 6.9 mph - N/A   Overcast
4:34 PM 34.5 °F 27.9 °F 26.8 °F 73% 29.85 in 10.0 mi NNE 8.1 mph - N/A   Mostly Cloudy
4:54 PM 33.8 °F 28.6 °F 26.1 °F 73% 29.85 in 10.0 mi NE 5.8 mph - N/A   Scattered Clouds
5:14 PM 34.2 °F 27.5 °F 25.7 °F 71% 29.86 in 10.0 mi NNE 8.1 mph - N/A   Scattered Clouds
5:34 PM 33.8 °F 28.6 °F 25.3 °F 71% 29.86 in 10.0 mi NNE 5.8 mph - N/A   Clear
5:54 PM 33.3 °F 27.9 °F 26.1 °F 75% 29.87 in 10.0 mi NE 5.8 mph - N/A   Mostly Cloudy
6:14 PM 32.5 °F 24.8 °F 26.2 °F 78% 29.87 in 10.0 mi NE 9.2 mph - N/A   Mostly Cloudy
6:34 PM 31.8 °F 25.4 °F 24.8 °F 75% 29.87 in 10.0 mi NE 6.9 mph - N/A   Scattered Clouds
6:54 PM 31.1 °F 23.7 °F 24.6 °F 77% 29.87 in 10.0 mi ENE 8.1 mph - N/A   Clear
7:14 PM 30.6 °F 25.8 °F 24.4 °F 78% 29.87 in 10.0 mi NE 4.6 mph - N/A   Clear
7:34 PM 30.0 °F 26.5 °F 24.3 °F 79% 29.88 in 10.0 mi ENE 3.5 mph - N/A   Scattered Clouds
7:53 PM 29.7 °F 24.7 °F 23.9 °F 79% 29.89 in 10.0 mi NE 4.6 mph - N/A   Scattered Clouds
8:14 PM 29.3 °F 25.6 °F 23.7 °F 80% 29.89 in 10.0 mi ENE 3.5 mph - N/A   Clear
8:34 PM 29.3 °F 24.3 °F 23.9 °F 80% 29.90 in 10.0 mi NE 4.6 mph - N/A   Scattered Clouds
8:53 PM 29.1 °F 25.4 °F 23.9 °F 81% 29.89 in 10.0 mi ENE 3.5 mph - N/A   Mostly Cloudy
9:14 PM 29.1 °F 22.1 °F 24.3 °F 82% 29.90 in 10.0 mi NE 6.9 mph - N/A   Clear
9:34 PM 29.7 °F 23.7 °F 24.3 °F 80% 29.89 in 10.0 mi ENE 5.8 mph - N/A   Scattered Clouds
9:55 PM 29.7 °F 24.7 °F 24.1 °F 80% 29.90 in 10.0 mi NE 4.6 mph - N/A   Overcast
10:14 PM 29.7 °F 22.8 °F 23.9 °F 79% 29.90 in 10.0 mi NE 6.9 mph - N/A   Mostly Cloudy
10:34 PM 29.7 °F 23.7 °F 23.9 °F 79% 29.91 in 10.0 mi NE 5.8 mph - N/A   Mostly Cloudy
10:54 PM 29.7 °F 22.8 °F 23.4 °F 77% 29.91 in 10.0 mi NE 6.9 mph - N/A   Mostly Cloudy
11:14 PM 29.7 °F 23.7 °F 21.7 °F 72% 29.91 in 10.0 mi NNE 5.8 mph - N/A   Mostly Cloudy
11:34 PM 29.5 °F 21.1 °F 19.0 °F 65% 29.91 in 10.0 mi NE 9.2 mph - N/A   Overcast
11:53 PM 29.3 °F 22.3 °F 18.5 °F 64% 29.90 in 10.0 mi NE 6.9 mph - N/A   Overcast